Briefing drone pour Onet-le-chateau

Rechercher une autre localisation

Conditions de vol :


Nous sommes le : Mercredi 03 mars 2021
Il est 06:03 UTC (07:03 LT)

Lever de soleil : 05:56 UTC (06:56 LT)
Coucher de soleil : 18:07 UTC (19:07 LT)

Météo

L'essentiel des conditions de vol

VIGILANCE MÉTÉO FRANCE - Aveyron (12)
Pas de vigilances particulieres
CARTE TEMSI
CARTES DES FRONTS
METAR de LFCR
LFCR 030530Z AUTO 12004KT CAVOK 07/M04 Q1029 NOSIG

Date d'émission: 03/03/2021
Heure d'émission: 05:30 UTC
Vent: 120° pour 4 KT (7 km/h)
Visibilité horizontale: > 10 km
Plafond : Plafond et visibilité OK (CAVOK)
Température: 7 °C
Point de rosée: -4 °C
Humidité: 45%
Pression (QNH): 1029 hPa
Conditions: Pas de changement dans les 2 heures (NOSIG)
TAF de LFCR
LFCR 030500Z 0306/0406 11008KT CAVOK

Conditions prévues :

Heure d'émission : Bulletin éffectué le 03 à 06:00 UTC
Prévision : Valide du 03 a 06:00 UTC au 04 a 06:00 UTC
Vent : 110° pour 8 KT (15 km/h)
Visibilité : > 10 km
WEBCAM POUR ONET-LE-CHATEAU

Réglementation

Voler en sécurité

CARTES AERONAUTIQUE 1/500.000
CARTES VAC (LFCR)
SUP AIP




Chargement des AIP...
NOTAM (ONET-LE-CHATEAU + Terrain à proximité / FIR )




Chargement des NOTAMS...
CONTACT PREFECTURE 12


Avertissement : Les données mises à disposition sont indicatives. Oxygène Drone ne pourra être tenu responsable de dégâts causés aux biens et aux personnes.